x

Bodega Bay - 48nm Nnw Of San Francisco, Ca (46013) Wave Buoy

7:50pm - Fri 30th Jan 2015 All times are PST. -8 hours from GMT.

  • Sig Wave height 9.5ft
  • Peak Period 15s
  • Average Period 7s
  • Wind
    22mph, 25mph gusts
  • Sea Temp 57°f
  • Air Temp 56°f
  • Sea Pressure 1013mb
  • Bodega Bay - 48nm Nnw Of San Francisco, Ca
  • Bodega Bay - 48nm Nnw Of San Francisco, Ca

More Historic Weather Station data

Upgrade to MSW Pro to gain access to the past 30 days of data for over 8000 Wavebouys and Weather Stations around the globe.

Join Pro

Comparision Forecast

View Surf forecast
   
Fri 01/30 7:50pm 9.5ft 15s 7s 22 25 mph 1013mb 57f 56f
6:50pm 8.5ft 15s 6s 22 29 mph 1013.2mb 57f 56f
5:50pm 8.5ft 7s 6s 27 34 mph 1012.9mb 57f 56f
4:50pm 8ft 16s 6s 20 22 mph 1012.9mb 57f 56f
3:50pm 8ft 16s 7s 25 29 mph 1012.9mb 57f 56f
2:50pm 7ft 16s 6s 22 27 mph 1013.4mb 57f 56f
1:50pm 7.5ft 16s 7s 18 22 mph 1014.3mb 57f 56f
12:50pm 7ft 15s 7s 16 20 mph 1015mb 57f 55f
11:50am 7.5ft 16s 7s 16 20 mph 1016mb 57f 55f
10:50am 8ft 16s 7s 16 20 mph 1016.4mb 57f 55f
9:50am 7.5ft 16s 7s 18 22 mph 1016.4mb 57f 55f
8:50am 8ft 16s 7s 13 16 mph 1016.3mb 57f 55f
7:50am 8ft 16s 6s 18 20 mph 1016.2mb 57f 55f
6:50am 8ft 8s 6s 22 27 mph 1016mb 57f 55f
5:50am 8ft 16s 6s 25 31 mph 1016.3mb 57f 55f
4:50am 8ft 7s 6s 25 29 mph 1016.4mb 57f 55f
3:50am 8ft 8s 6s 27 29 mph 1016.8mb 57f 55f
2:50am 7.5ft 8s 6s 25 29 mph 1017.3mb 57f 55f
1:50am 8ft 8s 6s 25 31 mph 1017.5mb 57f 55f
12:50am 8ft 17s 6s 22 25 mph 1017.9mb 57f 55f
Thu 01/29 11:50pm 8ft 17s 6s 25 29 mph 1018.1mb 57f 55f
10:50pm 8.5ft 17s 6s 25 29 mph 1018.2mb 57f 55f
9:50pm 7ft 16s 6s 25 29 mph 1018.1mb 57f 55f
8:50pm 7ft 17s 6s 27 31 mph 1018.2mb 57f 55f
7:50pm 8ft 17s 6s 25 29 mph 1018.6mb 57f 56f
6:50pm 7ft 17s 6s 22 29 mph 1018.7mb 57f 56f
5:50pm 6.5ft 17s 6s 22 27 mph 1018.5mb 57f 56f
4:50pm 6ft 17s 6s 22 27 mph 1018.5mb 57f 56f
3:50pm 5.5ft 17s 6s 20 25 mph 1018.8mb 57f 56f
2:50pm 5.5ft 17s 7s 16 18 mph 1019.1mb 57f 56f
1:50pm 6ft 17s  -  16 18 mph 1019.6mb 57f 55f
12:50pm 5ft 17s 7s 13 18 mph 1020.4mb 57f 54f
11:50am 5ft 17s 7s 9 11 mph 1021.3mb 57f 53f
10:50am 5ft 19s 7s 7 9 mph 1021.6mb 57f 53f
9:50am 5.5ft 11s 7s 9 11 mph 1021.5mb 57f 54f
8:50am 6ft 19s 7s 11 13 mph 1021.3mb 57f 54f
7:50am 6ft 19s 7s 11 16 mph 1020.9mb 57f 55f
6:50am 6ft 19s 7s 13 18 mph 1020.6mb 57f 55f
5:50am 5.5ft 11s 6s 16 18 mph 1020.2mb 57f 55f
4:50am 6ft 12s 7s 16 18 mph 1020.5mb 57f 56f
3:50am 6.5ft 19s 6s 18 20 mph 1020.4mb 57f 56f
2:50am 6ft 12s 6s 20 22 mph 1020.8mb 57f 56f
1:50am 6ft 13s 6s 20 25 mph 1021.2mb 57f 56f
12:50am 6.5ft 12s 6s 22 27 mph 1021.2mb 57f 56f
Wed 01/28 11:50pm 6.5ft 12s 6s 22 27 mph 1021.4mb 57f 56f
10:50pm 6.5ft 12s 6s 22 27 mph 1021.2mb 57f 55f
9:50pm 6.5ft 12s 6s 22 25 mph 1021.4mb 57f 56f
8:50pm 6.5ft 12s 6s 22 27 mph 1021.2mb 57f 56f
7:50pm 6ft 13s 6s 22 27 mph 1021.3mb 57f 56f
6:50pm 6ft 12s 7s 20 22 mph 1021.3mb 57f 56f
5:50pm 5.5ft 12s 7s 18 22 mph 1021.3mb 58f 56f
4:50pm 6ft 13s 8s 16 18 mph 1021.6mb 58f 57f
3:50pm 5ft 13s 8s 13 16 mph 1022mb 58f 57f
2:50pm 6ft 13s 10s 13 16 mph 1022.2mb 58f 57f
1:50pm 5ft 12s 9s 11 13 mph 1022.7mb 58f 57f
12:50pm 5.5ft 13s 10s 7 9 mph 1023.5mb 58f 56f
11:50am 5.5ft 14s 10s 7
mph
1024.3mb 58f 56f
10:50am 5ft 14s 9s 4
mph
1025.1mb 57f 56f
9:50am 5.5ft 14s 10s 4 7 mph 1024.9mb 57f 57f
8:50am 5ft 14s 9s 7 9 mph 1024.5mb 57f 56f
7:50am 5.5ft 14s 10s 7 11 mph 1024.1mb 57f 56f
6:50am 5ft 14s 9s 7 9 mph 1023.9mb 57f 56f
5:50am 6ft 14s 10s 7 9 mph 1024mb 57f 56f
4:50am 6ft 14s 10s 9 11 mph 1024mb 57f 56f
3:50am 6.5ft 14s 10s 7 11 mph 1024mb 57f 56f
2:50am 6ft 14s 10s 7 9 mph 1024.2mb 57f 56f
1:50am 6ft 14s 9s 7 9 mph 1024mb 57f 57f
12:50am 5.5ft 14s 9s 7 9 mph 1024mb 57f 57f
Tue 01/27 11:50pm 6ft 14s 10s 4 7 mph 1024.7mb 57f 57f
10:50pm 6ft 14s 10s 4 7 mph 1024.4mb 57f 57f
9:50pm 7ft 14s 10s 7 9 mph 1024.2mb 57f 58f
8:50pm 6ft 14s 9s 4 7 mph 1023.9mb 57f 58f
7:50pm 5.5ft 14s 9s 7
mph
1023.5mb 57f 58f
6:50pm 5.5ft 14s 9s 7 9 mph 1023.1mb 57f 58f
5:50pm 6ft 15s 9s 7 9 mph 1022.7mb 57f 58f
4:50pm 6.5ft 14s 9s 7 9 mph 1022.5mb 57f 58f
3:50pm 6ft 15s 9s 9 11 mph 1022.5mb 57f 58f
2:50pm 6.5ft 15s 9s 9 11 mph 1022.5mb 57f 58f
1:50pm 6.5ft 14s 8s 13 16 mph 1022.3mb 57f 58f
12:50pm 6.5ft 14s 8s 16 18 mph 1022.2mb 57f 58f
11:50am 6.5ft 12s 8s 16 18 mph 1022.3mb 57f 58f
10:50am 6ft 12s 7s 16 18 mph 1022.2mb 57f 58f
9:50am 6ft 14s 9s 16 18 mph 1021.4mb 57f 58f
8:50am 6ft 12s 9s 13 16 mph 1020.7mb 57f 58f
7:50am 6ft 12s 9s 11 13 mph 1020mb 57f 58f
6:50am 6ft 13s 9s 13 16 mph 1018.8mb 57f 57f
5:50am 6.5ft 14s 11s 13 16 mph 1017.9mb 57f 57f